.
WxDataArchive / Data Records for 2011-04-20
2011-04-19 April 2011 2011-04-21

Data Records for Wednesday, 20 April 2011

Time	Temp	Chill	HIndex	Humid	Dewpt	 Wind 	HiWind	WindDir	Rain 	Barom 
-----	----	-----	------	-----	-----	------	------	-------	-----	----- 
00:00	41.3	41.3	41.3	97	40.5	0	1	90	0.01	29.625 
00:05	41.5	41.5	41.5	97	40.7	0	1	90	0.00	29.625 
00:10	41.5	41.5	41.5	97	40.7	0	2	90	0.01	29.625 
00:15	41.6	41.6	41.6	97	40.8	0	2	90	0.01	29.619 
00:20	41.8	41.8	41.8	97	41.0	0	2	90	0.00	29.619 
00:25	41.9	41.9	41.9	97	41.1	0	0	---	0.01	29.619 
00:30	41.9	41.9	41.9	97	41.1	0	1	90	0.00	29.613 
00:35	42.1	42.1	42.1	97	41.3	0	0	---	0.02	29.613 
00:40	42.3	42.3	42.3	97	41.5	0	2	90	0.02	29.613 
00:45	42.3	42.3	42.3	97	41.5	0	1	90	0.02	29.635 
00:50	42.5	42.5	42.5	97	41.7	0	1	90	0.03	29.635 
00:55	42.5	42.5	42.5	97	41.7	0	1	90	0.02	29.635 
01:00	42.6	42.6	42.6	97	41.8	1	2	90	0.02	29.563 
01:05	42.6	42.6	42.6	97	41.8	2	5	90	0.01	29.563 
01:10	42.6	42.6	42.6	97	41.8	0	2	90	0.01	29.563 
01:15	42.8	42.8	42.8	97	42.0	0	1	90	0.01	29.576 
01:20	42.8	42.8	42.8	97	42.0	0	2	90	0.01	29.576 
01:25	42.9	42.9	42.9	97	42.1	0	1	90	0.01	29.576 
01:30	43.1	43.1	43.1	97	42.3	0	2	90	0.01	29.611 
01:35	43.2	43.2	43.2	97	42.4	0	2	90	0.02	29.611 
01:40	43.3	43.3	43.3	97	42.5	0	0	---	0.02	29.611 
01:45	43.3	43.3	43.3	97	42.5	1	2	90	0.02	29.600 
01:50	43.3	43.3	43.3	97	42.5	2	3	90	0.01	29.600 
01:55	43.2	43.2	43.2	97	42.4	2	4	90	0.01	29.600 
02:00	43.2	43.2	43.2	97	42.4	2	4	90	0.01	29.565 
02:05	43.1	43.1	43.1	97	42.3	1	4	90	0.00	29.565 
02:10	43.1	43.1	43.1	97	42.3	1	4	90	0.01	29.565 
02:15	43.2	43.2	43.2	97	42.4	1	3	90	0.01	29.580 
02:20	43.2	41.0	43.2	97	42.4	4	9	90	0.01	29.580 
02:25	43.1	39.5	43.1	97	42.3	6	13	90	0.00	29.580 
02:30	42.9	39.2	42.9	97	42.1	6	13	90	0.01	29.492 
02:35	43.3	43.3	43.3	97	42.5	3	7	90	0.00	29.492 
02:40	44.1	44.1	44.1	97	43.3	2	5	112	0.00	29.492 
02:45	44.6	44.6	44.6	97	43.8	1	3	112	0.00	29.513 
02:50	44.9	44.9	44.9	98	44.4	0	2	112	0.00	29.513 
02:55	45.2	45.2	45.2	98	44.7	0	3	112	0.00	29.513 
03:00	45.5	45.5	45.5	98	45.0	1	3	112	0.00	29.515 
03:05	45.7	45.7	45.7	98	45.2	0	2	112	0.00	29.515 
03:10	45.8	45.8	45.8	98	45.3	0	1	112	0.00	29.515 
03:15	45.7	45.7	45.7	97	44.9	0	1	112	0.00	29.506 
03:20	45.7	45.7	45.7	97	44.9	0	0	---	0.00	29.506 
03:25	45.5	45.5	45.5	97	44.7	0	0	---	0.00	29.506 
03:30	45.5	45.5	45.5	97	44.7	0	0	---	0.00	29.513 
03:35	45.7	45.7	45.7	97	44.9	0	2	112	0.00	29.513 
03:40	47.3	47.3	47.3	98	46.8	1	4	112	0.00	29.513 
03:45	51.6	51.6	51.6	98	51.1	2	4	270	0.00	29.525 
03:50	54.1	54.1	54.1	99	53.8	2	5	248	0.00	29.525 
03:55	55.1	55.1	55.1	99	54.8	1	3	248	0.00	29.525 
04:00	55.7	55.7	55.7	99	55.4	2	4	248	0.00	29.533 
04:05	56.0	56.0	56.0	99	55.7	2	7	248	0.00	29.533 
04:10	56.2	56.2	56.2	99	55.9	2	5	225	0.00	29.533 
04:15	56.3	56.3	56.3	99	56.0	2	5	248	0.00	29.520 
04:20	56.5	56.5	56.5	99	56.2	1	4	248	0.00	29.520 
04:25	56.6	56.6	56.6	99	56.3	1	5	270	0.00	29.520 
04:30	56.7	56.7	56.7	99	56.4	2	3	248	0.00	29.527 
04:35	57.0	57.0	57.0	99	56.7	2	6	248	0.00	29.527 
04:40	57.2	57.2	57.2	99	56.9	2	6	248	0.00	29.527 
04:45	57.3	57.3	57.3	99	57.0	3	6	248	0.00	29.530 
04:50	57.5	57.5	57.5	99	57.2	3	6	248	0.01	29.530 
04:55	57.5	57.5	57.5	99	57.2	4	11	225	0.00	29.530 
05:00	56.6	56.6	56.6	98	56.0	6	14	270	0.00	29.540 
05:05	55.7	55.7	55.7	98	55.1	4	9	248	0.00	29.540 
05:10	55.0	55.0	55.0	98	54.4	4	9	270	0.00	29.540 
05:15	53.9	53.9	53.9	98	53.3	6	12	270	0.00	29.569 
05:20	53.3	53.3	53.3	98	52.7	4	11	270	0.00	29.569 
05:25	52.8	52.8	52.8	97	52.0	7	13	270	0.00	29.569 
05:30	52.3	52.3	52.3	97	51.5	6	14	270	0.00	29.589 
05:35	51.0	51.0	51.0	97	50.2	6	13	270	0.00	29.589 
05:40	49.9	47.5	49.9	97	49.1	6	14	270	0.00	29.589 
05:45	49.1	47.2	49.1	96	48.0	5	12	270	0.00	29.618 
05:50	47.9	45.2	47.9	96	46.8	6	12	270	0.00	29.618 
05:55	47.3	45.0	47.3	96	46.2	5	12	248	0.00	29.618 
06:00	46.1	43.0	46.1	95	44.7	6	12	270	0.00	29.648 
06:05	45.4	42.2	45.4	95	44.1	6	12	270	0.00	29.648 
06:10	44.5	41.1	44.5	94	42.9	6	10	270	0.00	29.648 
06:15	43.8	40.9	43.8	94	42.2	5	9	270	0.00	29.674 
06:20	43.3	41.1	43.3	93	41.4	4	10	270	0.00	29.674 
06:25	42.9	39.9	42.9	93	41.0	5	11	270	0.00	29.674 
06:30	42.6	40.3	42.6	93	40.7	4	9	270	0.00	29.689 
06:35	42.5	40.2	42.5	93	40.6	4	9	270	0.00	29.689 
06:40	42.5	40.2	42.5	93	40.6	4	7	248	0.00	29.689 
06:45	42.5	40.2	42.5	93	40.6	4	7	270	0.00	29.705 
06:50	42.5	40.2	42.5	93	40.6	4	7	270	0.00	29.705 
06:55	42.5	39.4	42.5	93	40.6	5	10	270	0.00	29.705 
07:00	42.5	40.2	42.5	93	40.6	4	7	270	0.00	29.712 
07:05	42.6	39.5	42.6	93	40.7	5	9	270	0.00	29.712 
07:10	42.6	40.3	42.6	94	41.0	4	9	270	0.00	29.712 
07:15	42.6	39.5	42.6	94	41.0	5	9	270	0.00	29.722 
07:20	42.5	40.2	42.5	93	40.6	4	11	270	0.00	29.722 
07:25	42.1	38.9	42.1	93	40.2	5	11	270	0.00	29.722 
07:30	41.6	37.7	41.6	93	39.7	6	13	270	0.00	29.742 
07:35	41.2	37.2	41.2	93	39.3	6	11	270	0.00	29.742 
07:40	41.1	37.8	41.1	93	39.2	5	10	270	0.00	29.742 
07:45	40.9	38.4	40.9	93	39.0	4	8	270	0.00	29.757 
07:50	40.6	37.2	40.6	92	38.5	5	10	270	0.00	29.757 
07:55	40.5	37.1	40.5	92	38.4	5	11	270	0.00	29.757 
08:00	40.5	37.9	40.5	92	38.4	4	7	270	0.00	29.774 
08:05	40.5	37.9	40.5	92	38.4	4	9	248	0.00	29.774 
08:10	40.3	36.8	40.3	91	37.9	5	16	270	0.00	29.774 
08:15	40.3	37.7	40.3	91	37.9	4	6	270	0.00	29.802 
08:20	40.2	37.5	40.2	90	37.5	4	9	270	0.00	29.802 
08:25	40.1	36.6	40.1	90	37.4	5	13	270	0.00	29.802 
08:30	39.9	37.2	39.9	90	37.2	4	9	270	0.00	29.818 
08:35	39.6	36.0	39.6	90	36.9	5	11	270	0.00	29.818 
08:40	39.6	36.9	39.6	90	36.9	4	7	270	0.00	29.818 
08:45	39.5	36.7	39.5	90	36.8	4	10	270	0.00	29.819 
08:50	39.3	36.5	39.3	91	36.9	4	10	270	0.00	29.819 
08:55	39.3	35.7	39.3	91	36.9	5	10	270	0.00	29.819 
09:00	39.2	36.4	39.2	91	36.8	4	7	270	0.00	29.840 
09:05	39.3	39.3	39.3	91	36.9	3	6	248	0.00	29.840 
09:10	39.3	36.5	39.3	91	36.9	4	10	248	0.00	29.840 
09:15	39.3	36.5	39.3	91	36.9	4	6	270	0.00	29.855 
09:20	39.2	36.4	39.2	91	36.8	4	7	248	0.00	29.855 
09:25	39.2	36.4	39.2	91	36.8	4	10	270	0.00	29.855 
09:30	39.2	36.4	39.2	91	36.8	4	8	270	0.00	29.884 
09:35	39.2	36.4	39.2	91	36.8	4	6	270	0.00	29.884 
09:40	39.3	35.7	39.3	90	36.6	5	11	270	0.00	29.884 
09:45	39.5	36.7	39.5	90	36.8	4	10	270	0.00	29.892 
09:50	39.5	36.7	39.5	90	36.8	4	7	270	0.00	29.892 
09:55	39.5	35.9	39.5	89	36.5	5	10	270	0.00	29.892 
10:00	39.5	39.5	39.5	89	36.5	3	7	270	0.00	29.890 
10:05	39.5	39.5	39.5	89	36.5	3	6	270	0.00	29.890 
10:10	39.8	39.8	39.8	89	36.8	3	6	270	0.00	29.890 
10:15	39.8	37.1	39.8	88	36.5	4	7	270	0.00	29.896 
10:20	39.8	37.1	39.8	88	36.5	4	12	270	0.00	29.896 
10:25	39.9	39.9	39.9	88	36.6	3	9	248	0.00	29.896 
10:30	40.1	40.1	40.1	87	36.5	3	6	270	0.00	29.909 
10:35	40.1	40.1	40.1	87	36.5	3	9	248	0.00	29.909 
10:40	40.1	37.4	40.1	86	36.3	4	9	270	0.00	29.909 
10:45	40.2	40.2	40.2	85	36.1	3	6	248	0.00	29.912 
10:50	40.5	40.5	40.5	85	36.4	3	9	270	0.00	29.912 
10:55	40.5	40.5	40.5	84	36.1	3	5	270	0.00	29.912 
11:00	40.5	37.9	40.5	84	36.1	4	7	270	0.00	29.930 
11:05	40.3	37.7	40.3	84	35.9	4	8	270	0.00	29.930 
11:10	40.5	37.9	40.5	83	35.8	4	6	270	0.00	29.930 
11:15	40.8	40.8	40.8	83	36.0	3	5	270	0.00	29.931 
11:20	41.1	41.1	41.1	83	36.3	2	5	270	0.00	29.931 
11:25	40.8	38.2	40.8	81	35.4	4	7	270	0.00	29.931 
11:30	41.1	41.1	41.1	81	35.7	3	7	248	0.00	29.942 
11:35	41.1	41.1	41.1	81	35.7	3	7	270	0.00	29.942 
11:40	41.2	41.2	41.2	81	35.8	3	5	248	0.00	29.942 
11:45	41.1	38.6	41.1	80	35.4	4	9	270	0.00	29.954 
11:50	41.1	38.6	41.1	81	35.7	4	11	270	0.00	29.954 
11:55	41.2	38.7	41.2	80	35.5	4	7	270	0.00	29.954 
12:00	41.5	39.1	41.5	79	35.5	4	10	270	0.00	29.960 
12:05	42.2	42.2	42.2	79	36.2	3	7	270	0.00	29.960 
12:10	42.6	39.5	42.6	75	35.2	5	11	270	0.00	29.960 
12:15	42.5	40.2	42.5	76	35.5	4	10	270	0.00	29.972 
12:20	42.5	40.2	42.5	75	35.1	4	7	270	0.00	29.972 
12:25	42.3	39.2	42.3	75	35.0	5	9	270	0.00	29.972 
12:30	42.5	40.2	42.5	77	35.8	4	9	270	0.00	29.988 
12:35	42.6	42.6	42.6	77	35.9	3	11	248	0.00	29.988 
12:40	42.6	40.3	42.6	75	35.2	4	9	270	0.00	29.988 
12:45	42.3	40.0	42.3	76	35.3	4	9	270	0.00	29.995 
12:50	42.2	39.9	42.2	77	35.5	4	11	248	0.00	29.995 
12:55	42.1	39.7	42.1	78	35.7	4	10	248	0.00	29.995 
13:00	41.6	38.4	41.6	78	35.3	5	10	270	0.00	30.012 
13:05	41.5	38.2	41.5	80	35.8	5	10	270	0.00	30.012 
13:10	41.6	38.4	41.6	79	35.6	5	11	270	0.00	30.012 
13:15	41.6	39.2	41.6	79	35.6	4	9	270	0.00	30.012 
13:20	41.6	39.2	41.6	78	35.3	4	11	270	0.00	30.012 
13:25	41.9	39.5	41.9	78	35.5	4	7	270	0.00	30.012 
13:30	41.8	39.4	41.8	78	35.5	4	9	248	0.00	30.021 
13:35	41.5	39.1	41.5	79	35.5	4	6	248	0.00	30.021 
13:40	41.3	41.3	41.3	80	35.6	3	7	248	0.00	30.021 
13:45	41.5	38.2	41.5	80	35.8	5	9	270	0.00	30.032 
13:50	41.5	39.1	41.5	78	35.2	4	8	270	0.00	30.032 
13:55	41.5	39.1	41.5	78	35.2	4	8	270	0.00	30.032 
14:00	41.6	39.2	41.6	78	35.3	4	8	270	0.00	30.044 
14:05	41.6	39.2	41.6	78	35.3	4	10	270	0.00	30.044 
14:10	41.6	39.2	41.6	78	35.3	4	8	270	0.00	30.044 
14:15	41.6	41.6	41.6	77	34.9	3	7	270	0.00	30.049 
14:20	41.3	38.8	41.3	77	34.6	4	9	270	0.00	30.049 
14:25	41.2	38.7	41.2	78	34.9	4	9	270	0.00	30.049 
14:30	41.2	38.7	41.2	78	34.9	4	7	270	0.00	30.060 
14:35	41.5	39.1	41.5	79	35.5	4	7	248	0.00	30.060 
14:40	41.9	39.5	41.9	78	35.5	4	9	270	0.00	30.060 
14:45	41.6	38.4	41.6	77	34.9	5	9	270	0.00	30.064 
14:50	41.5	39.1	41.5	78	35.2	4	6	270	0.00	30.064 
14:55	41.5	39.1	41.5	78	35.2	4	8	248	0.00	30.064 
15:00	41.3	38.0	41.3	77	34.6	5	9	270	0.00	30.080 
15:05	41.3	41.3	41.3	78	35.0	3	6	270	0.00	30.080 
15:10	41.3	38.8	41.3	77	34.6	4	7	270	0.00	30.080 
15:15	41.5	39.1	41.5	77	34.8	4	7	270	0.00	30.070 
15:20	41.9	39.5	41.9	77	35.2	4	8	270	0.00	30.070 
15:25	42.3	39.2	42.3	76	35.3	5	13	270	0.00	30.070 
15:30	42.3	40.0	42.3	76	35.3	4	9	270	0.00	30.073 
15:35	42.3	39.2	42.3	74	34.6	5	10	270	0.00	30.073 
15:40	42.3	40.0	42.3	75	35.0	4	7	270	0.00	30.073 
15:45	42.5	40.2	42.5	74	34.8	4	7	270	0.00	30.080 
15:50	42.5	40.2	42.5	75	35.1	4	6	248	0.00	30.080 
15:55	42.3	42.3	42.3	74	34.6	3	9	248	0.00	30.080 
16:00	42.2	39.9	42.2	75	34.9	4	7	270	0.00	30.088 
16:05	42.1	42.1	42.1	74	34.4	3	7	270	0.00	30.088 
16:10	42.2	42.2	42.2	75	34.9	3	7	270	0.00	30.088 
16:15	42.5	42.5	42.5	73	34.5	3	6	248	0.00	30.094 
16:20	42.6	42.6	42.6	73	34.6	3	7	248	0.00	30.094 
16:25	42.8	42.8	42.8	73	34.8	3	6	248	0.00	30.094 
16:30	42.8	42.8	42.8	72	34.4	3	6	248	0.00	30.087 
16:35	42.8	42.8	42.8	71	34.1	3	5	248	0.00	30.087 
16:40	42.9	42.9	42.9	71	34.2	3	7	292	0.00	30.087 
16:45	42.8	42.8	42.8	72	34.4	3	7	270	0.00	30.101 
16:50	42.8	42.8	42.8	72	34.4	3	5	248	0.00	30.101 
16:55	42.6	42.6	42.6	72	34.2	3	6	248	0.00	30.101 
17:00	42.8	40.6	42.8	71	34.1	4	6	270	0.00	30.102 
17:05	42.8	42.8	42.8	71	34.1	3	6	270	0.00	30.102 
17:10	42.8	42.8	42.8	72	34.4	3	5	270	0.00	30.102 
17:15	42.8	42.8	42.8	72	34.4	3	5	225	0.00	30.127 
17:20	42.8	40.6	42.8	71	34.1	4	7	270	0.00	30.127 
17:25	42.6	40.3	42.6	71	33.9	4	7	270	0.00	30.127 
17:30	42.8	42.8	42.8	71	34.1	3	6	270	0.00	30.138 
17:35	42.6	40.3	42.6	71	33.9	4	7	270	0.00	30.138 
17:40	42.8	42.8	42.8	71	34.1	3	6	270	0.00	30.138 
17:45	42.8	42.8	42.8	71	34.1	3	6	270	0.00	30.133 
17:50	42.9	42.9	42.9	71	34.2	3	6	270	0.00	30.133 
17:55	43.2	43.2	43.2	71	34.4	3	5	225	0.00	30.133 
18:00	43.3	43.3	43.3	70	34.2	2	5	270	0.00	30.132 
18:05	43.5	43.5	43.5	70	34.4	3	7	270	0.00	30.132 
18:10	43.3	43.3	43.3	69	33.8	3	6	270	0.00	30.132 
18:15	43.5	41.4	43.5	69	34.0	4	9	270	0.00	30.145 
18:20	43.3	41.1	43.3	69	33.8	4	6	270	0.00	30.145 
18:25	43.3	43.3	43.3	70	34.2	3	6	270	0.00	30.145 
18:30	43.3	43.3	43.3	70	34.2	2	5	270	0.00	30.151 
18:35	43.3	43.3	43.3	70	34.2	2	4	225	0.00	30.151 
18:40	43.3	43.3	43.3	71	34.5	2	5	248	0.00	30.151 
18:45	43.2	43.2	43.2	70	34.1	3	6	270	0.00	30.159 
18:50	43.2	43.2	43.2	71	34.4	2	5	270	0.00	30.159 
18:55	43.2	43.2	43.2	71	34.4	3	6	248	0.00	30.159 
19:00	43.2	43.2	43.2	71	34.4	3	6	248	0.00	30.163 
19:05	43.2	43.2	43.2	71	34.4	3	4	248	0.00	30.163 
19:10	43.2	43.2	43.2	71	34.4	3	6	248	0.00	30.163 
19:15	43.1	43.1	43.1	71	34.3	3	5	248	0.00	30.177 
19:20	43.2	43.2	43.2	71	34.4	2	3	248	0.00	30.177 
19:25	43.2	43.2	43.2	71	34.4	2	6	270	0.00	30.177 
19:30	43.2	43.2	43.2	72	34.8	2	4	248	0.00	30.177 
19:35	43.2	43.2	43.2	72	34.8	3	6	248	0.00	30.177 
19:40	43.1	43.1	43.1	72	34.7	2	4	248	0.00	30.177 
19:45	43.1	43.1	43.1	73	35.0	2	5	248	0.00	30.176 
19:50	43.1	43.1	43.1	73	35.0	2	5	270	0.00	30.176 
19:55	42.9	42.9	42.9	73	34.9	2	7	248	0.00	30.176 
20:00	42.9	42.9	42.9	73	34.9	2	4	225	0.00	30.176 
20:05	42.9	42.9	42.9	73	34.9	2	5	248	0.00	30.176 
20:10	42.9	42.9	42.9	73	34.9	2	5	248	0.00	30.176 
20:15	42.9	42.9	42.9	74	35.2	2	6	248	0.00	30.179 
20:20	42.9	42.9	42.9	74	35.2	2	4	248	0.00	30.179 
20:25	42.8	42.8	42.8	74	35.1	2	6	248	0.00	30.179 
20:30	42.8	42.8	42.8	75	35.4	2	5	270	0.00	30.178 
20:35	42.8	42.8	42.8	75	35.4	2	5	248	0.00	30.178 
20:40	42.6	42.6	42.6	75	35.2	2	5	248	0.00	30.178 
20:45	42.6	42.6	42.6	75	35.2	2	4	248	0.00	30.183 
20:50	42.6	42.6	42.6	75	35.2	2	4	248	0.00	30.183 
20:55	42.5	42.5	42.5	75	35.1	2	3	248	0.00	30.183 
21:00	42.5	42.5	42.5	74	34.8	2	5	248	0.00	30.183 
21:05	42.5	42.5	42.5	73	34.5	3	4	270	0.00	30.183 
21:10	42.3	42.3	42.3	73	34.3	2	4	248	0.00	30.183 
21:15	42.3	42.3	42.3	73	34.3	3	5	248	0.00	30.194 
21:20	42.3	42.3	42.3	73	34.3	2	5	270	0.00	30.194 
21:25	42.3	42.3	42.3	73	34.3	3	5	270	0.00	30.194 
21:30	42.3	42.3	42.3	72	33.9	3	5	270	0.00	30.196 
21:35	42.2	42.2	42.2	73	34.2	3	5	270	0.00	30.196 
21:40	42.2	42.2	42.2	73	34.2	2	6	248	0.00	30.196 
21:45	42.1	42.1	42.1	73	34.1	2	4	270	0.00	30.210 
21:50	42.1	42.1	42.1	73	34.1	2	4	270	0.00	30.210 
21:55	42.1	42.1	42.1	73	34.1	2	6	248	0.00	30.210 
22:00	42.1	42.1	42.1	73	34.1	3	6	248	0.00	30.214 
22:05	42.1	42.1	42.1	73	34.1	2	5	248	0.00	30.214 
22:10	41.9	41.9	41.9	73	33.9	1	3	248	0.00	30.214 
22:15	41.9	41.9	41.9	73	33.9	2	5	248	0.00	30.221 
22:20	41.8	41.8	41.8	73	33.8	2	4	248	0.00	30.221 
22:25	41.8	41.8	41.8	74	34.1	2	5	248	0.00	30.221 
22:30	41.8	41.8	41.8	74	34.1	2	5	248	0.00	30.226 
22:35	41.6	41.6	41.6	74	33.9	1	3	248	0.00	30.226 
22:40	41.6	41.6	41.6	74	33.9	2	3	248	0.00	30.226 
22:45	41.6	41.6	41.6	74	33.9	1	3	248	0.00	30.221 
22:50	41.5	41.5	41.5	74	33.8	1	4	248	0.00	30.221 
22:55	41.5	41.5	41.5	74	33.8	1	3	270	0.00	30.221 
23:00	41.5	41.5	41.5	74	33.8	2	5	270	0.00	30.224 
23:05	41.3	41.3	41.3	74	33.6	1	3	248	0.00	30.224 
23:10	41.3	41.3	41.3	74	33.6	1	3	248	0.00	30.224 
23:15	41.3	41.3	41.3	74	33.6	2	4	248	0.00	30.226 
23:20	41.3	41.3	41.3	74	33.6	2	3	248	0.00	30.226 
23:25	41.3	41.3	41.3	75	34.0	1	3	248	0.00	30.226 
23:30	41.3	41.3	41.3	75	34.0	1	3	248	0.00	30.226 
23:35	41.3	41.3	41.3	75	34.0	1	3	248	0.00	30.226 
23:40	41.2	41.2	41.2	75	33.9	1	4	248	0.00	30.226 
23:45	41.2	41.2	41.2	76	34.2	1	2	248	0.00	30.236 
23:50	41.2	41.2	41.2	76	34.2	2	4	248	0.00	30.236 
23:55	41.2	41.2	41.2	76	34.2	2	4	225	0.00	30.236 

CoCoRaHS
IN-AL-39
A2 Web Hosting
Creative Commons License
GoDaddy
search engine by freefind advanced

loaded 2018-11-20 15:38:53 • last modified 2010-11-18 10:43:29
Privacy PolicyDisclaimer
• wx.awcolley.com is powered by PmWiki v.2002016 •
• all content (unless otherwise noted) © 2018 A W Colley